This is the latest recevied weather packets stored in our database for station/object N5SOR-1. If no packets are shown the sender has not sent any weather packets the latest 10 day(s).
| Time | Temp. | Humidity | Pressure | Rain* | Wind** | Luminosity | Snow |
|---|---|---|---|---|---|---|---|
| 1777605596 | 17.22° C | 64% | 1013.2 hPa | 0 mm | - | 0 W/m² | - |
| 1777604935 | 17.22° C | 64% | 1013 hPa | 0 mm | - | 0 W/m² | - |
| 1777604274 | 17.22° C | 64% | 1012.5 hPa | 0 mm | - | 0 W/m² | - |
| 1777603614 | 17.22° C | 63% | 1012.3 hPa | 0 mm | - | 0 W/m² | - |
| 1777602953 | 17.22° C | 63% | 1012.3 hPa | 0 mm | - | 0 W/m² | - |
| 1777602292 | 17.78° C | 63% | 1012.3 hPa | 0 mm | - | 0 W/m² | - |
| 1777601632 | 17.78° C | 61% | 1012.4 hPa | 0 mm | - | 0 W/m² | - |
| 1777600971 | 18.33° C | 57% | 1012.2 hPa | 0 mm | - | 0 W/m² | - |
| 1777600311 | 18.33° C | 57% | 1012.1 hPa | 0 mm | - | 0 W/m² | - |
| 1777599650 | 18.33° C | 58% | 1011.8 hPa | 0 mm | - | 0 W/m² | - |
| 1777598989 | 18.33° C | 57% | 1011.5 hPa | 0 mm | - | 0 W/m² | - |
| 1777598329 | 18.33° C | 57% | 1011.2 hPa | 0 mm | - | 5 W/m² | - |
| 1777597668 | 18.89° C | 56% | 1010.8 hPa | 0 mm | - | 14 W/m² | - |
| 1777597008 | 18.89° C | 55% | 1010.6 hPa | 0 mm | - | 25 W/m² | - |
| 1777596347 | 18.89° C | 55% | 1010.4 hPa | 0 mm | - | 25 W/m² | - |
| 1777595686 | 19.44° C | 54% | 1010.4 hPa | 0 mm | - | 37 W/m² | - |
| 1777595026 | 19.44° C | 53% | 1010 hPa | 0 mm | - | 47 W/m² | - |
| 1777594365 | 20° C | 52% | 1010 hPa | 0 mm | - | 88 W/m² | - |
| 1777593704 | 20.56° C | 52% | 1010.1 hPa | 0 mm | - | 118 W/m² | - |
| 1777593044 | 20.56° C | 51% | 1010 hPa | 0 mm | - | 100 W/m² | - |
| 1777592383 | 21.11° C | 50% | 1009.8 hPa | 0 mm | - | 163 W/m² | - |
| 1777591723 | 21.67° C | 50% | 1009.5 hPa | 0 mm | - | 123 W/m² | - |
| 1777591062 | 22.78° C | 49% | 1009.4 hPa | 0 mm | - | 134 W/m² | - |
| 1777590401 | 22.78° C | 47% | 1008.8 hPa | 0 mm | - | 202 W/m² | - |
| 1777589741 | 23.33° C | 46% | 1009.4 hPa | 0 mm | - | 594 W/m² | - |
* Rain latest hour (hover to see other rain measurements)
** Current wind speed in m/s (hover to see current wind gust speed)